Time;durP1;ratioP1;P1;durP2;ratioP2;P2;SDS_P1;SDS_P2;PMS_P1;PMS_P2;Temp;Humidity;BMP_temperature;BMP_pressure;BME280_temperature;BME280_humidity;BME280_pressure;Samples;Min_cycle;Max_cycle;Signal;HPM_P1;HPM_P2
2022/08/11 00:00:13;;;;;;;3.58;2.30;;;16.40;99.90;;;;;;5022364;28;20067;-79
2022/08/11 00:02:45;;;;;;;2.80;1.65;;;16.30;99.90;;;;;;5006282;28;20470;-79
2022/08/11 00:05:18;;;;;;;3.92;2.22;;;16.30;99.90;;;;;;5022505;28;20077;-79
2022/08/11 00:07:51;;;;;;;3.47;1.90;;;16.30;99.90;;;;;;5005682;28;20124;-79
2022/08/11 00:10:23;;;;;;;3.88;2.00;;;16.30;99.90;;;;;;5022102;28;20037;-79
2022/08/11 00:12:56;;;;;;;3.92;2.13;;;16.30;99.90;;;;;;5044762;28;20491;-79
2022/08/11 00:15:24;;;;;;;4.68;2.35;;;16.30;99.90;;;;;;5041996;28;20045;-79
2022/08/11 00:17:57;;;;;;;3.78;2.03;;;16.20;99.90;;;;;;5042320;28;20367;-79
2022/08/11 00:20:31;;;;;;;2.83;1.70;;;16.20;99.90;;;;;;5025570;28;20427;-80
2022/08/11 00:23:04;;;;;;;3.63;1.80;;;16.20;99.90;;;;;;5024690;28;20051;-80
2022/08/11 00:25:36;;;;;;;5.60;2.05;;;16.20;99.90;;;;;;5025078;28;20479;-81
2022/08/11 00:28:02;;;;;;;3.83;2.03;;;16.10;99.90;;;;;;5026024;28;20418;-80
2022/08/11 00:30:38;;;;;;;5.72;2.40;;;16.10;99.90;;;;;;5037811;28;20040;-80
2022/08/11 00:33:05;;;;;;;4.88;2.42;;;16.00;99.90;;;;;;5044344;28;20043;-81
2022/08/11 00:35:32;;;;;;;4.10;1.83;;;16.00;99.90;;;;;;5038522;28;20479;-81
2022/08/11 00:37:59;;;;;;;3.63;1.98;;;16.00;99.90;;;;;;5038534;28;20037;-81
2022/08/11 00:40:36;;;;;;;3.15;1.90;;;15.90;99.90;;;;;;5038621;28;20068;-81
2022/08/11 00:43:14;;;;;;;6.10;2.33;;;16.00;99.90;;;;;;5053491;28;20464;-81
2022/08/11 00:45:45;;;;;;;7.85;2.28;;;16.00;99.90;;;;;;5054534;28;20040;-81
2022/08/11 00:48:35;;;;;;;4.93;2.20;;;15.90;99.90;;;;;;5037820;28;20053;-81
2022/08/11 00:51:09;;;;;;;4.00;2.50;;;15.90;99.90;;;;;;5038793;28;20041;-81
2022/08/11 00:54:04;;;;;;;4.55;2.08;;;15.80;99.90;;;;;;5022047;28;20080;-82
2022/08/11 00:57:02;;;;;;;6.47;3.42;;;15.80;99.90;;;;;;5036753;28;20055;-81
2022/08/11 01:00:01;;;;;;;4.10;2.30;;;15.70;99.90;;;;;;5002079;28;20045;-87
2022/08/11 01:02:52;;;;;;;5.00;2.33;;;15.70;99.90;;;;;;4986348;28;20045;-81
2022/08/11 01:05:44;;;;;;;4.30;2.30;;;15.70;99.90;;;;;;5036526;28;20041;-81
2022/08/11 01:08:16;;;;;;;4.28;2.28;;;15.70;99.90;;;;;;5037806;28;20087;-81
2022/08/11 01:11:01;;;;;;;3.65;2.10;;;15.60;99.90;;;;;;5037959;28;20136;-79
2022/08/11 01:13:46;;;;;;;6.13;3.10;;;15.60;99.90;;;;;;5037524;28;20099;-79
2022/08/11 01:16:49;;;;;;;6.10;3.08;;;15.60;99.90;;;;;;5037311;28;20405;-79
2022/08/11 01:19:33;;;;;;;4.10;2.50;;;15.60;99.90;;;;;;5050474;28;20458;-79
2022/08/11 01:22:39;;;;;;;6.47;2.78;;;15.60;99.90;;;;;;5053702;28;20033;-79
2022/08/11 01:25:16;;;;;;;3.50;2.20;;;15.60;99.90;;;;;;5053197;28;20427;-79
2022/08/11 01:28:11;;;;;;;3.90;2.17;;;15.50;99.90;;;;;;5043822;28;20044;-81
2022/08/11 01:30:49;;;;;;;5.60;2.60;;;15.50;99.90;;;;;;5014550;28;20390;-81
2022/08/11 01:33:33;;;;;;;4.65;2.40;;;15.50;99.90;;;;;;5037010;28;20114;-81
2022/08/11 01:36:26;;;;;;;3.80;2.10;;;15.50;99.90;;;;;;5037831;28;20033;-81
2022/08/11 01:39:10;;;;;;;3.67;2.42;;;15.50;99.90;;;;;;5026487;28;20184;-81
2022/08/11 01:45:05;;;;;;;4.13;2.50;;;15.40;99.90;;;;;;5022680;28;20049;-81
2022/08/11 01:47:49;;;;;;;4.22;2.10;;;15.40;99.90;;;;;;5034825;28;20363;-81
2022/08/11 01:50:27;;;;;;;3.20;2.00;;;15.40;99.90;;;;;;5044611;28;20041;-81
2022/08/11 01:53:11;;;;;;;3.05;1.50;;;15.40;99.90;;;;;;5054124;28;20040;-81
2022/08/11 01:56:05;;;;;;;4.80;2.67;;;15.30;99.90;;;;;;5051044;28;20171;-81
2022/08/11 01:58:50;;;;;;;3.75;2.13;;;15.30;99.90;;;;;;5019892;28;20045;-81
2022/08/11 02:01:35;;;;;;;3.75;2.13;;;15.30;99.90;;;;;;5017780;28;20087;-79
2022/08/11 02:04:32;;;;;;;3.40;2.00;;;15.20;99.90;;;;;;5039337;28;20048;-79
2022/08/11 02:07:17;;;;;;;3.17;1.88;;;15.20;99.90;;;;;;5053522;28;20129;-79
2022/08/11 02:09:57;;;;;;;5.10;2.40;;;15.20;99.90;;;;;;5019852;28;20029;-78
2022/08/11 02:12:26;;;;;;;2.80;1.75;;;15.20;99.90;;;;;;5020624;28;20121;-79
2022/08/11 02:15:19;;;;;;;3.33;2.00;;;15.10;99.90;;;;;;5036760;28;20041;-79
2022/08/11 02:18:04;;;;;;;3.38;1.92;;;15.10;99.90;;;;;;5038344;28;20507;-81
2022/08/11 02:23:50;;;;;;;3.47;2.20;;;15.00;99.90;;;;;;5053582;28;20056;-81
2022/08/11 02:26:22;;;;;;;4.88;2.40;;;15.00;99.90;;;;;;5053511;28;20041;-81
2022/08/11 02:29:25;;;;;;;4.60;2.45;;;15.00;99.90;;;;;;5032326;28;20049;-81
2022/08/11 02:35:14;;;;;;;3.88;2.60;;;15.00;99.90;;;;;;5036246;28;20053;-79
2022/08/11 02:38:01;;;;;;;4.18;2.60;;;15.00;99.90;;;;;;5019541;28;20032;-79
2022/08/11 02:40:45;;;;;;;4.00;2.40;;;14.90;99.90;;;;;;5019201;28;20058;-79
2022/08/11 02:43:17;;;;;;;4.25;1.80;;;14.90;99.90;;;;;;5037030;28;20040;-79
2022/08/11 02:46:21;;;;;;;4.10;2.33;;;14.90;99.90;;;;;;5019650;28;20132;-79
2022/08/11 02:52:32;;;;;;;4.78;2.63;;;14.80;99.90;;;;;;5035700;28;20037;-79
2022/08/11 02:55:01;;;;;;;4.40;2.15;;;14.80;99.90;;;;;;5013333;28;20395;-79
2022/08/11 02:57:36;;;;;;;3.85;2.13;;;14.80;99.90;;;;;;5010312;28;20056;-79
2022/08/11 03:00:09;;;;;;;3.63;1.80;;;14.70;99.90;;;;;;5038225;28;20044;-79
2022/08/11 03:03:06;;;;;;;4.22;2.38;;;14.70;99.90;;;;;;5038049;28;20048;-79
2022/08/11 03:05:53;;;;;;;2.85;1.70;;;14.70;99.90;;;;;;5047181;28;20041;-79
2022/08/11 03:08:55;;;;;;;4.28;2.05;;;14.70;99.90;;;;;;5052448;28;20047;-79
2022/08/11 03:17:36;;;;;;;6.68;2.75;;;14.60;99.90;;;;;;5035699;28;20094;-79
2022/08/11 03:20:21;;;;;;;3.97;1.90;;;14.60;99.90;;;;;;4999877;28;20045;-79
2022/08/11 03:23:07;;;;;;;4.50;2.35;;;14.60;99.90;;;;;;5018448;28;20040;-79
2022/08/11 03:25:39;;;;;;;;;;;14.60;99.90;;;;;;5037631;28;20095;-79
2022/08/11 03:28:39;;;;;;;4.15;2.30;;;14.50;99.90;;;;;;5035619;28;20409;-79
2022/08/11 03:31:13;;;;;;;4.65;2.15;;;14.50;99.90;;;;;;5036120;28;20198;-79
2022/08/11 03:34:11;;;;;;;3.50;1.77;;;14.50;99.90;;;;;;5032693;28;20041;-79
2022/08/11 03:43:37;;;;;;;7.88;2.60;;;14.40;99.90;;;;;;5013234;28;20049;-81
2022/08/11 03:46:07;;;;;;;;;;;14.40;99.90;;;;;;5035929;28;20041;-81
2022/08/11 03:49:08;;;;;;;4.35;2.55;;;14.40;99.90;;;;;;5019127;28;19920;-81
2022/08/11 03:51:51;;;;;;;4.10;2.20;;;14.30;99.90;;;;;;5011792;28;20041;-81
2022/08/11 03:54:39;;;;;;;3.28;2.15;;;14.30;99.90;;;;;;5019363;28;20398;-81
2022/08/11 03:57:27;;;;;;;4.00;2.08;;;14.30;99.90;;;;;;5019154;28;20041;-79
2022/08/11 04:00:13;;;;;;;4.28;2.03;;;14.30;99.90;;;;;;5019484;28;20033;-79
2022/08/11 04:03:08;;;;;;;;;;;14.20;99.90;;;;;;5035536;28;20053;-79
2022/08/11 04:06:14;;;;;;;4.25;2.10;;;14.20;99.90;;;;;;5021390;28;19916;-79
2022/08/11 04:09:17;;;;;;;3.08;1.67;;;14.20;99.90;;;;;;5039003;28;20041;-79
2022/08/11 04:16:01;;;;;;;3.63;1.80;;;14.20;99.90;;;;;;5046231;28;20410;-79
2022/08/11 04:18:50;;;;;;;3.22;1.80;;;14.10;99.90;;;;;;5031167;28;20068;-79
2022/08/11 04:21:25;;;;;;;2.88;1.83;;;14.20;99.90;;;;;;5023085;28;20036;-79
2022/08/11 04:24:42;;;;;;;4.25;2.42;;;14.10;99.90;;;;;;5040810;28;20041;-79
2022/08/11 04:27:27;;;;;;;5.22;2.72;;;14.20;99.90;;;;;;5033131;28;20049;-79
2022/08/11 04:30:05;;;;;;;6.03;2.45;;;14.20;99.90;;;;;;5036601;28;20102;-81
2022/08/11 04:32:58;;;;;;;3.58;1.98;;;14.20;99.90;;;;;;5039098;28;20041;-81
2022/08/11 04:35:49;;;;;;;4.18;2.03;;;14.20;99.90;;;;;;5021536;28;20044;-81
2022/08/11 04:38:27;;;;;;;4.00;2.40;;;14.30;99.90;;;;;;5002659;28;20463;-81
2022/08/11 04:43:19;;;;;;;3.97;2.22;;;14.30;99.90;;;;;;5019479;28;20044;-81
2022/08/11 04:44:45;;;;;;;4.77;2.73;;;14.30;99.90;;;;;;5018946;28;20103;-81
2022/08/11 05:03:50;;;;;;;3.60;2.03;;;14.70;99.90;;;;;;5037671;28;20041;-81
2022/08/11 05:07:00;;;;;;;3.67;1.90;;;14.80;99.90;;;;;;5037881;28;20082;-81
2022/08/11 05:09:41;;;;;;;4.43;2.55;;;15.00;99.90;;;;;;5022577;28;20045;-81
2022/08/11 05:12:19;;;;;;;3.58;2.03;;;15.00;99.90;;;;;;5037618;28;20487;-81
2022/08/11 05:35:40;;;;;;;5.07;2.67;;;16.40;99.90;;;;;;5036940;28;20398;-81
2022/08/11 05:58:04;;;;;;;4.43;2.25;;;16.90;99.90;;;;;;5036581;28;20045;-81
2022/08/11 06:00:31;;;;;;;5.22;2.40;;;17.00;99.90;;;;;;5020389;28;20395;-81
2022/08/11 06:03:02;;;;;;;3.60;2.05;;;17.10;99.90;;;;;;5020005;28;20047;-81
2022/08/11 06:05:36;;;;;;;7.20;3.38;;;18.10;99.90;;;;;;5020022;28;20095;-81
2022/08/11 06:08:04;;;;;;;6.32;3.38;;;19.70;99.90;;;;;;5020330;28;20059;-81
2022/08/11 06:10:36;;;;;;;6.45;3.55;;;21.50;99.90;;;;;;5036317;28;20091;-80
2022/08/11 06:13:03;;;;;;;6.32;3.67;;;23.00;99.90;;;;;;5036218;28;20491;-79
2022/08/11 06:15:33;;;;;;;6.72;3.35;;;24.20;99.90;;;;;;5039470;28;20025;-79
2022/08/11 06:18:01;;;;;;;5.43;2.72;;;25.30;99.90;;;;;;5035900;28;20043;-79
2022/08/11 06:20:36;;;;;;;4.53;2.70;;;26.30;99.90;;;;;;5036047;28;20502;-80
2022/08/11 06:23:04;;;;;;;7.47;3.45;;;27.00;99.90;;;;;;5052941;28;20033;-80
2022/08/11 06:25:34;;;;;;;5.78;3.28;;;27.50;99.90;;;;;;5033664;28;20053;-79
2022/08/11 06:28:04;;;;;;;4.78;2.53;;;28.10;99.90;;;;;;5018591;28;20076;-80
2022/08/11 06:30:48;;;;;;;6.35;3.03;;;28.40;98.00;;;;;;5035515;28;20044;-80
2022/08/11 06:33:18;;;;;;;4.13;2.50;;;29.20;97.80;;;;;;5037040;28;20041;-80
2022/08/11 06:35:47;;;;;;;3.47;2.30;;;29.70;97.50;;;;;;5053316;28;20051;-80
2022/08/11 06:38:22;;;;;;;5.30;2.50;;;30.40;97.80;;;;;;5052924;28;20037;-80
2022/08/11 06:43:50;;;;;;;5.00;2.40;;;31.10;94.80;;;;;;5052391;28;20508;-81
2022/08/11 06:46:24;;;;;;;3.30;2.20;;;31.10;93.50;;;;;;5032478;28;20499;-81
2022/08/11 06:48:53;;;;;;;4.65;2.60;;;31.60;93.50;;;;;;5034554;28;20051;-82
2022/08/11 06:51:19;;;;;;;3.45;2.00;;;31.50;93.10;;;;;;5044313;28;20047;-82
2022/08/11 06:53:58;;;;;;;5.07;2.95;;;31.90;92.90;;;;;;4990250;28;20047;-82
2022/08/11 07:02:15;;;;;;;4.43;2.45;;;32.60;92.00;;;;;;5020611;28;20474;-82
2022/08/11 07:05:01;;;;;;;3.95;2.42;;;33.10;90.60;;;;;;5018081;28;20037;-82
2022/08/11 07:16:47;;;;;;;6.32;2.50;;;33.60;87.50;;;;;;5031053;28;20045;-83
2022/08/11 07:30:40;;;;;;;3.85;2.10;;;34.20;84.80;;;;;;5034966;28;20056;-82
2022/08/11 07:33:08;;;;;;;3.25;2.00;;;34.00;83.90;;;;;;5035048;28;20045;-82
2022/08/11 07:35:44;;;;;;;3.38;2.05;;;34.40;82.80;;;;;;5051589;28;20388;-80
2022/08/11 07:38:41;;;;;;;2.83;1.60;;;34.80;82.70;;;;;;5051483;28;20112;-80
2022/08/11 07:41:10;;;;;;;3.45;1.88;;;35.60;83.70;;;;;;5038969;28;20479;-80
2022/08/11 07:43:36;;;;;;;2.47;1.63;;;35.70;80.60;;;;;;5039040;28;20072;-80
2022/08/11 07:54:21;;;;;;;4.13;2.13;;;36.00;79.40;;;;;;5055354;28;20088;-83
2022/08/11 07:56:48;;;;;;;1.73;1.30;;;36.40;79.10;;;;;;5013229;28;20043;-83
2022/08/11 08:18:36;;;;;;;2.00;1.40;;;37.80;77.20;;;;;;5038622;28;20363;-81
2022/08/11 08:21:14;;;;;;;6.53;1.30;;;38.20;75.10;;;;;;5053929;28;20049;-80
2022/08/11 08:23:45;;;;;;;2.40;1.38;;;38.60;74.10;;;;;;5038316;28;20468;-81
2022/08/11 08:31:52;;;;;;;5.93;1.92;;;38.90;71.80;;;;;;5046242;28;20095;-81
2022/08/11 08:34:19;;;;;;;2.28;1.33;;;38.80;70.80;;;;;;5033168;28;20041;-81
2022/08/11 08:36:47;;;;;;;2.47;1.55;;;39.00;73.30;;;;;;5037727;28;20072;-81
2022/08/11 08:39:15;;;;;;;1.45;1.13;;;38.50;72.00;;;;;;5054948;28;20037;-81
2022/08/11 08:41:42;;;;;;;2.75;1.10;;;39.00;71.70;;;;;;5020192;28;20049;-81
2022/08/11 08:44:11;;;;;;;2.38;1.13;;;38.60;71.10;;;;;;5041482;28;20045;-81
2022/08/11 08:46:42;;;;;;;1.20;1.10;;;38.90;71.90;;;;;;5034088;28;20053;-81
2022/08/11 08:49:13;;;;;;;1.33;1.00;;;39.00;68.80;;;;;;5001745;28;20476;-81
2022/08/11 08:51:41;;;;;;;2.15;1.20;;;39.00;67.60;;;;;;5001448;28;20483;-81
2022/08/11 08:54:16;;;;;;;2.08;0.85;;;39.00;67.80;;;;;;4997132;28;20046;-81
2022/08/11 08:56:43;;;;;;;1.60;1.10;;;39.20;69.00;;;;;;5003268;28;20388;-81
2022/08/11 08:59:12;;;;;;;1.95;1.00;;;38.80;66.80;;;;;;5017274;28;20479;-81
2022/08/11 09:01:48;;;;;;;9.32;2.25;;;39.10;67.50;;;;;;4993418;28;20029;-80
2022/08/11 09:04:15;;;;;;;1.38;1.00;;;39.20;69.20;;;;;;5016516;28;20099;-81
2022/08/11 09:06:42;;;;;;;1.70;1.10;;;39.60;67.00;;;;;;5001314;28;20131;-81
2022/08/11 09:09:10;;;;;;;3.25;1.10;;;39.90;68.40;;;;;;5008552;28;20060;-81
2022/08/11 09:11:56;;;;;;;1.95;1.35;;;40.40;67.80;;;;;;4997695;28;20054;-81
2022/08/11 09:14:23;;;;;;;1.10;1.00;;;40.10;65.50;;;;;;4985156;28;20081;-81
2022/08/11 09:16:51;;;;;;;1.88;1.38;;;40.30;64.50;;;;;;5001564;28;20128;-81
2022/08/11 09:19:19;;;;;;;2.20;1.10;;;40.60;65.10;;;;;;5002098;28;20475;-81
2022/08/11 09:26:58;;;;;;;2.50;1.10;;;41.10;66.00;;;;;;4991690;28;20492;-81
2022/08/11 09:27:23;;;;;;;2.65;1.23;;;39.90;63.70;;;;;;5017356;28;20124;-81
2022/08/11 09:29:50;;;;;;;3.90;1.35;;;39.90;63.20;;;;;;5001405;28;20045;-81
2022/08/11 09:32:23;;;;;;;3.33;1.40;;;40.10;64.30;;;;;;5000215;28;20053;-81
2022/08/11 09:34:50;;;;;;;3.30;1.40;;;40.00;65.60;;;;;;5000759;28;20052;-81
2022/08/11 09:45:33;;;;;;;1.77;1.40;;;41.20;61.80;;;;;;5016262;28;20049;-81
2022/08/11 09:48:00;;;;;;;2.50;1.35;;;41.40;62.00;;;;;;5031839;28;20092;-84
2022/08/11 09:50:27;;;;;;;2.92;1.17;;;40.90;61.70;;;;;;5036753;28;20110;-83
2022/08/11 09:52:53;;;;;;;3.00;1.52;;;41.40;62.50;;;;;;5044607;28;20367;-83
2022/08/11 09:55:19;;;;;;;3.00;1.40;;;40.80;60.40;;;;;;5024152;28;20033;-83
2022/08/11 10:00:36;;;;;;;3.30;1.42;;;41.00;60.00;;;;;;5037043;28;20143;-83
2022/08/11 10:03:06;;;;;;;2.28;1.00;;;41.20;60.80;;;;;;5036364;28;20040;-83
2022/08/11 10:08:18;;;;;;;2.50;1.48;;;42.10;59.50;;;;;;5036693;28;20048;-83
2022/08/11 10:10:46;;;;;;;1.52;1.20;;;42.00;57.50;;;;;;5036059;28;20056;-84
2022/08/11 10:13:24;;;;;;;1.60;1.38;;;41.50;59.10;;;;;;5020138;28;20133;-84
2022/08/11 10:15:56;;;;;;;2.42;1.25;;;41.80;58.50;;;;;;5023889;28;20053;-83
2022/08/11 10:18:41;;;;;;;2.33;1.13;;;42.40;60.10;;;;;;5031326;28;20041;-84
2022/08/11 10:21:10;;;;;;;2.45;1.30;;;41.50;57.30;;;;;;5020100;28;20475;-84
2022/08/11 10:34:44;;;;;;;1.50;1.33;;;41.80;55.10;;;;;;5035682;28;20056;-84
2022/08/11 10:37:10;;;;;;;1.88;1.25;;;42.10;57.20;;;;;;5036071;28;20041;-81
2022/08/11 10:39:38;;;;;;;1.38;1.23;;;41.60;54.90;;;;;;5022653;28;20132;-81
2022/08/11 10:44:56;;;;;;;1.50;1.30;;;40.50;58.20;;;;;;5018521;28;20510;-81
2022/08/11 10:47:35;;;;;;;3.20;1.35;;;40.60;57.00;;;;;;5025078;28;20152;-81
2022/08/11 11:01:07;;;;;;;1.83;1.00;;;40.70;56.50;;;;;;4999515;28;20045;-81
2022/08/11 11:03:35;;;;;;;1.63;1.10;;;40.50;57.80;;;;;;4999116;28;20045;-81
2022/08/11 11:06:24;;;;;;;1.88;1.17;;;40.60;57.10;;;;;;5032140;28;20037;-81
2022/08/11 11:08:56;;;;;;;1.80;1.40;;;40.30;55.90;;;;;;4999535;28;20037;-81
2022/08/11 11:19:37;;;;;;;;;;;40.60;57.80;;;;;;5014724;28;20041;-83
2022/08/11 11:22:37;;;;;;;1.48;1.23;;;40.60;56.00;;;;;;5015459;28;19917;-84
2022/08/11 11:25:17;;;;;;;1.73;1.15;;;40.90;56.30;;;;;;5015672;28;20059;-83
2022/08/11 11:28:12;;;;;;;2.10;1.50;;;40.50;57.50;;;;;;4968950;28;20072;-81
2022/08/11 11:31:11;;;;;;;1.67;1.30;;;40.50;56.80;;;;;;4977823;28;20046;-81
2022/08/11 11:34:01;;;;;;;2.00;1.20;;;39.70;55.80;;;;;;4999193;28;20048;-81
2022/08/11 11:36:49;;;;;;;2.42;1.48;;;39.70;54.50;;;;;;5015321;28;20463;-81
2022/08/11 11:39:21;;;;;;;1.70;1.02;;;39.90;57.90;;;;;;5003318;28;20452;-81
2022/08/11 11:41:53;;;;;;;1.50;1.10;;;39.20;56.30;;;;;;5016144;28;20099;-81
2022/08/11 11:44:21;;;;;;;3.83;1.40;;;39.20;55.50;;;;;;5010155;28;20077;-83
2022/08/11 11:46:49;;;;;;;1.50;1.10;;;39.40;56.60;;;;;;5036843;28;20075;-83
2022/08/11 11:49:19;;;;;;;1.67;1.25;;;39.30;56.20;;;;;;5002477;28;20049;-83
2022/08/11 11:51:53;;;;;;;3.35;1.40;;;38.50;56.70;;;;;;5019100;28;20071;-83
2022/08/11 11:54:25;;;;;;;5.88;1.10;;;39.00;56.50;;;;;;5035885;28;20048;-84
2022/08/11 11:56:56;;;;;;;2.03;0.80;;;39.20;56.50;;;;;;5031727;28;20056;-83
2022/08/11 12:02:13;;;;;;;1.70;1.20;;;39.20;56.60;;;;;;5026482;28;20041;-81
2022/08/11 12:04:46;;;;;;;2.40;1.38;;;39.20;57.30;;;;;;5050258;28;20053;-81
2022/08/11 12:09:57;;;;;;;;;;;38.50;57.40;;;;;;5036320;28;20128;-81
2022/08/11 12:15:10;;;;;;;1.92;1.17;;;38.60;57.00;;;;;;5034079;28;20124;-81
2022/08/11 12:17:37;;;;;;;1.55;1.20;;;38.40;57.10;;;;;;5017153;28;20037;-82
2022/08/11 12:20:04;;;;;;;2.40;1.35;;;38.20;58.50;;;;;;5034992;28;20398;-82
2022/08/11 12:28:01;;;;;;;1.30;1.20;;;38.30;56.80;;;;;;5028795;28;20476;-81
2022/08/11 12:30:27;;;;;;;1.85;1.30;;;38.20;58.40;;;;;;5038721;28;20777;-81
2022/08/11 12:32:54;;;;;;;1.65;1.10;;;38.00;57.50;;;;;;5038763;28;20483;-81
2022/08/11 12:35:21;;;;;;;1.30;0.90;;;37.60;57.50;;;;;;5038513;28;20402;-84
2022/08/11 12:37:53;;;;;;;1.17;1.08;;;37.40;57.10;;;;;;5038713;28;20044;-83
2022/08/11 12:46:02;;;;;;;1.10;1.00;;;36.10;58.80;;;;;;5054533;28;20502;-84
2022/08/11 12:54:14;;;;;;;2.60;1.10;;;36.10;58.30;;;;;;5041327;28;20483;-81
2022/08/11 13:05:05;;;;;;;1.48;0.93;;;35.50;57.70;;;;;;5037885;28;20041;-81
2022/08/11 13:07:32;;;;;;;1.92;1.02;;;35.70;58.60;;;;;;5052690;28;20725;-83
2022/08/11 13:10:01;;;;;;;1.75;1.20;;;35.60;58.40;;;;;;5054248;28;20049;-83
2022/08/11 13:12:46;;;;;;;1.00;0.77;;;35.60;58.60;;;;;;5054560;28;20487;-83
2022/08/11 13:15:20;;;;;;;1.25;1.02;;;35.90;58.10;;;;;;5048065;28;20045;-83
2022/08/11 13:17:52;;;;;;;3.47;0.98;;;36.20;57.70;;;;;;5053726;28;20047;-83
2022/08/11 13:20:22;;;;;;;1.80;1.20;;;36.30;59.00;;;;;;5037813;28;20048;-83
2022/08/11 13:22:49;;;;;;;1.02;0.82;;;36.10;57.10;;;;;;5054064;28;20041;-83
2022/08/11 13:25:22;;;;;;;1.42;1.00;;;36.00;59.50;;;;;;5051874;28;20045;-83
2022/08/11 13:27:51;;;;;;;1.10;1.00;;;36.00;58.40;;;;;;5054269;28;20449;-83
2022/08/11 13:33:03;;;;;;;0.90;0.85;;;35.20;59.50;;;;;;5037647;28;20080;-83
2022/08/11 13:35:30;;;;;;;1.98;1.00;;;35.30;58.70;;;;;;5036824;28;20049;-82
2022/08/11 13:38:00;;;;;;;1.10;1.00;;;35.40;59.70;;;;;;5020483;28;20456;-83
2022/08/11 13:40:26;;;;;;;1.13;0.80;;;35.40;59.50;;;;;;5037412;28;20045;-83
2022/08/11 13:42:52;;;;;;;1.42;1.05;;;35.40;60.00;;;;;;5021065;28;20120;-83
2022/08/11 13:45:23;;;;;;;2.58;1.40;;;35.30;59.90;;;;;;5021033;28;20120;-83
2022/08/11 13:47:51;;;;;;;1.17;1.05;;;35.20;58.70;;;;;;5026954;28;20132;-81
2022/08/11 13:50:18;;;;;;;1.80;1.00;;;35.40;59.50;;;;;;5017408;28;20047;-81
2022/08/11 13:52:45;;;;;;;1.35;1.17;;;35.40;59.00;;;;;;5017641;28;20049;-81
2022/08/11 13:55:20;;;;;;;1.27;0.88;;;35.00;59.40;;;;;;5009850;28;20048;-81
2022/08/11 13:57:53;;;;;;;1.77;1.10;;;34.80;60.40;;;;;;5003623;28;20045;-81
2022/08/11 14:00:19;;;;;;;2.33;1.13;;;34.60;60.70;;;;;;5017535;28;20044;-81
2022/08/11 14:02:48;;;;;;;2.97;1.60;;;34.60;60.60;;;;;;5000926;28;20034;-81
2022/08/11 14:05:17;;;;;;;2.30;1.30;;;34.50;60.80;;;;;;5017641;28;20072;-81
2022/08/11 14:07:50;;;;;;;3.00;1.20;;;34.30;61.90;;;;;;5017801;28;20448;-81
2022/08/11 14:10:19;;;;;;;2.13;1.20;;;34.30;60.00;;;;;;5000762;28;20045;-81
2022/08/11 14:15:42;;;;;;;1.67;1.00;;;34.00;60.10;;;;;;5016331;28;20502;-83
2022/08/11 14:18:21;;;;;;;2.97;1.45;;;34.00;61.20;;;;;;5032592;28;20337;-83
2022/08/11 14:23:43;;;;;;;3.97;1.38;;;33.80;59.90;;;;;;5016048;28;20045;-82
2022/08/11 14:26:22;;;;;;;4.90;1.40;;;33.80;60.70;;;;;;4997444;28;20513;-82
2022/08/11 14:28:54;;;;;;;1.60;1.15;;;33.80;64.10;;;;;;5020561;28;20068;-82
2022/08/11 14:31:25;;;;;;;1.67;1.00;;;33.50;62.00;;;;;;5007917;28;20530;-82
2022/08/11 14:33:54;;;;;;;2.63;1.15;;;33.30;60.50;;;;;;5032666;28;20533;-82
2022/08/11 14:36:23;;;;;;;2.33;1.33;;;33.30;61.80;;;;;;5032643;28;20038;-82
2022/08/11 14:38:52;;;;;;;2.53;1.15;;;33.60;62.90;;;;;;5016297;28;20042;-82
2022/08/11 14:47:04;;;;;;;1.45;1.20;;;33.60;61.90;;;;;;5001376;28;20049;-81
2022/08/11 14:49:40;;;;;;;2.10;1.25;;;33.30;63.30;;;;;;5019687;28;20041;-80
2022/08/11 14:52:09;;;;;;;1.77;1.38;;;33.40;65.50;;;;;;5020808;28;20107;-81
2022/08/11 14:57:22;;;;;;;1.95;1.40;;;33.40;67.70;;;;;;5035621;28;20099;-81
2022/08/11 14:59:49;;;;;;;2.65;1.50;;;33.20;67.60;;;;;;5035606;28;20120;-81
2022/08/11 15:05:03;;;;;;;3.10;1.50;;;33.20;69.10;;;;;;5035780;28;20106;-81
2022/08/11 15:07:32;;;;;;;1.55;1.20;;;33.10;69.10;;;;;;5035441;28;20056;-81
2022/08/11 15:10:00;;;;;;;2.17;1.30;;;33.00;68.10;;;;;;5034867;28;20059;-81
2022/08/11 15:12:29;;;;;;;1.90;1.10;;;32.90;68.40;;;;;;5051333;28;20443;-81
2022/08/11 15:17:42;;;;;;;3.08;1.40;;;32.60;69.20;;;;;;5015574;28;20037;-81
2022/08/11 15:25:53;;;;;;;0.90;0.87;;;32.40;68.70;;;;;;5018571;28;20050;-81
2022/08/11 15:39:30;;;;;;;3.50;1.20;;;31.90;69.20;;;;;;5035619;28;20472;-83
2022/08/11 15:47:56;;;;;;;3.45;1.33;;;31.80;69.00;;;;;;5023885;28;20065;-82
2022/08/11 15:50:29;;;;;;;3.30;1.00;;;31.70;68.60;;;;;;5031749;28;20087;-83
2022/08/11 15:53:01;;;;;;;2.95;1.30;;;31.60;69.10;;;;;;5015523;28;20041;-83
2022/08/11 15:55:29;;;;;;;2.20;1.20;;;31.50;69.60;;;;;;5016765;28;20148;-83
2022/08/11 16:06:27;;;;;;;2.33;1.27;;;30.80;68.40;;;;;;5023593;28;20467;-82
2022/08/11 16:08:55;;;;;;;1.33;0.90;;;30.70;68.20;;;;;;5023027;28;20411;-82
2022/08/11 16:11:22;;;;;;;2.05;1.52;;;30.70;68.70;;;;;;5002193;28;20045;-82
2022/08/11 16:16:37;;;;;;;2.97;1.30;;;30.50;70.00;;;;;;5014397;28;20049;-83
2022/08/11 16:19:07;;;;;;;1.95;1.08;;;30.30;69.40;;;;;;4998442;28;20026;-82
2022/08/11 16:21:35;;;;;;;3.28;1.42;;;30.10;68.90;;;;;;5007940;28;20073;-82
2022/08/11 16:24:05;;;;;;;1.48;0.90;;;30.10;70.00;;;;;;5035244;28;20379;-82
2022/08/11 16:26:32;;;;;;;1.58;1.30;;;30.10;69.80;;;;;;5017652;28;20041;-82
2022/08/11 16:29:00;;;;;;;2.70;1.20;;;30.00;68.50;;;;;;4998434;28;20052;-82
2022/08/11 16:31:27;;;;;;;1.30;1.02;;;29.90;69.90;;;;;;5012757;28;20044;-82
2022/08/11 16:33:55;;;;;;;1.65;1.15;;;29.90;69.10;;;;;;4992308;28;20064;-82
2022/08/11 16:39:10;;;;;;;1.70;1.20;;;29.90;70.30;;;;;;5019622;28;20483;-82
2022/08/11 16:47:15;;;;;;;2.25;1.10;;;29.50;70.00;;;;;;5024401;28;20053;-82
2022/08/11 16:49:53;;;;;;;1.70;0.85;;;29.30;70.10;;;;;;5044838;28;20114;-82
2022/08/11 16:52:20;;;;;;;1.85;1.17;;;29.30;70.90;;;;;;5022204;28;20152;-82
2022/08/11 16:54:47;;;;;;;1.23;1.00;;;29.00;70.70;;;;;;5021979;28;20463;-82
2022/08/11 17:00:14;;;;;;;1.63;1.00;;;28.80;71.00;;;;;;5039097;28;20041;-82
2022/08/11 17:14:44;;;;;;;1.70;1.40;;;28.30;72.40;;;;;;5034850;28;20045;-82
2022/08/11 17:17:15;;;;;;;;;;;28.20;72.60;;;;;;5037366;28;20075;-80
2022/08/11 17:19:49;;;;;;;2.05;1.13;;;28.10;73.40;;;;;;5037624;28;19970;-80
2022/08/11 17:25:03;;;;;;;1.08;0.90;;;27.90;73.80;;;;;;5021554;28;20045;-80
2022/08/11 17:27:30;;;;;;;2.25;1.33;;;27.70;72.80;;;;;;5037709;28;20371;-80
2022/08/11 17:30:00;;;;;;;2.72;1.38;;;27.60;73.70;;;;;;5037443;28;20049;-80
2022/08/11 17:35:31;;;;;;;1.95;1.20;;;27.50;73.90;;;;;;5027043;28;20041;-82
2022/08/11 17:38:08;;;;;;;3.83;1.08;;;27.40;73.90;;;;;;5037409;28;20056;-82
2022/08/11 17:40:39;;;;;;;2.33;1.38;;;27.30;73.90;;;;;;5036518;28;20033;-82
2022/08/11 17:48:43;;;;;;;1.45;1.10;;;27.00;75.10;;;;;;5022202;28;20088;-82
2022/08/11 17:59:50;;;;;;;1.75;1.20;;;26.90;75.00;;;;;;5035662;28;20642;-80
2022/08/11 17:59:56;;;;;;;2.60;1.20;;;26.70;75.90;;;;;;4996317;28;19917;-80
2022/08/11 18:05:20;;;;;;;1.75;1.17;;;26.40;75.90;;;;;;5017261;28;20056;-81
